createdAt,value
2019-04-21T00:01:59.705Z,63.48
2019-04-21T00:05:24.975Z,63.85
2019-04-21T00:11:34.283Z,64.36
2019-04-21T00:14:31.564Z,64.53
2019-04-21T00:17:28.389Z,64.93
2019-04-21T00:20:40.913Z,65.50
2019-04-21T00:23:56.178Z,65.85
2019-04-21T00:27:05.549Z,65.92
2019-04-21T00:30:15.822Z,65.88
2019-04-21T00:33:06.931Z,66.02
2019-04-21T00:36:11.463Z,66.43
2019-04-21T00:39:45.046Z,66.81
2019-04-21T00:42:38.623Z,67.02
2019-04-21T00:45:39.039Z,67.13
2019-04-21T00:48:55.041Z,67.20
2019-04-21T00:52:36.675Z,67.27
2019-04-21T00:55:44.537Z,67.54
2019-04-21T00:58:47.750Z,67.58
2019-04-21T01:01:49.330Z,67.66
2019-04-21T01:05:01.705Z,67.80
2019-04-21T01:08:04.931Z,67.99
2019-04-21T01:11:02.186Z,68.35
2019-04-21T01:14:21.976Z,68.51
2019-04-21T01:17:21.710Z,68.73
2019-04-21T01:20:16.538Z,68.79
2019-04-21T01:23:12.755Z,68.93
2019-04-21T01:26:29.595Z,69.08
2019-04-21T01:29:46.954Z,69.19
2019-04-21T01:32:51.241Z,69.35
2019-04-21T01:35:54.987Z,69.62
2019-04-21T01:39:03.433Z,69.74
2019-04-21T01:42:03.807Z,69.93
2019-04-21T01:45:11.374Z,70.03
2019-04-21T01:48:12.966Z,70.05
2019-04-21T01:51:23.557Z,70.27
2019-04-21T01:54:51.998Z,70.58
2019-04-21T01:58:00.436Z,70.73
2019-04-21T02:01:09.977Z,70.81
2019-04-21T02:04:24.103Z,71.01
2019-04-21T02:07:27.376Z,71.19
2019-04-21T02:10:40.395Z,71.23
2019-04-21T02:13:51.261Z,71.40
2019-04-21T02:16:49.684Z,71.98
2019-04-21T02:19:48.042Z,72.14
2019-04-21T02:23:10.319Z,72.40
2019-04-21T02:26:03.326Z,72.30
2019-04-21T02:29:08.642Z,71.88
2019-04-21T02:35:40.220Z,72.34
2019-04-21T02:38:36.290Z,72.50
2019-04-21T02:41:43.759Z,72.68
2019-04-21T02:50:49.970Z,73.07
2019-04-21T02:57:08.574Z,73.15
2019-04-21T03:03:29.797Z,73.25
2019-04-21T03:09:53.239Z,73.43
2019-04-21T03:13:11.567Z,73.52
2019-04-21T03:16:20.949Z,73.60
2019-04-21T03:19:20.390Z,73.80
2019-04-21T03:22:22.612Z,73.90
2019-04-21T03:28:37.446Z,73.90
2019-04-21T03:32:06.406Z,74.10
2019-04-21T03:35:15.276Z,74.23
2019-04-21T03:37:52.892Z,74.29
2019-04-21T03:40:57.253Z,74.46
2019-04-21T03:50:11.455Z,74.65
2019-04-21T03:53:18.663Z,74.73
2019-04-21T03:56:44.396Z,74.63
2019-04-21T03:59:33.253Z,74.61
2019-04-21T04:03:44.233Z,74.70
2019-04-21T04:12:36.553Z,74.76
2019-04-21T04:15:49.088Z,74.69
2019-04-21T04:18:57.911Z,74.91
2019-04-21T04:28:13.756Z,74.58
2019-04-21T04:31:18.066Z,74.75
2019-04-21T04:37:38.362Z,74.70
2019-04-21T04:40:30.976Z,74.79
2019-04-21T04:43:35.501Z,74.79
2019-04-21T04:52:56.731Z,74.84
2019-04-21T04:59:26.077Z,75.03
2019-04-21T05:05:19.539Z,75.54
2019-04-21T05:08:34.470Z,75.41
2019-04-21T05:11:40.315Z,75.16
2019-04-21T05:14:33.768Z,75.26
2019-04-21T05:17:46.344Z,75.35
2019-04-21T05:20:52.244Z,75.18
2019-04-21T05:23:43.050Z,74.81
2019-04-21T05:26:46.186Z,73.37
2019-04-21T05:29:58.656Z,72.64
2019-04-21T05:33:13.556Z,72.80
2019-04-21T05:36:24.386Z,72.00
2019-04-21T05:39:33.698Z,71.81
2019-04-21T05:42:44.190Z,72.34
2019-04-21T05:45:53.303Z,72.64
2019-04-21T05:48:59.749Z,72.56
2019-04-21T05:52:03.693Z,72.32
2019-04-21T05:55:16.723Z,72.19
2019-04-21T05:58:40.619Z,72.10
2019-04-21T06:01:47.029Z,71.17
2019-04-21T06:05:10.470Z,71.20
2019-04-21T06:08:00.465Z,70.99
2019-04-21T06:11:07.262Z,70.57
2019-04-21T06:14:17.002Z,70.02
2019-04-21T06:20:21.300Z,69.26
2019-04-21T06:23:30.065Z,68.93
2019-04-21T06:26:50.528Z,68.33
2019-04-21T06:29:36.171Z,67.78
2019-04-21T06:33:15.423Z,66.50
2019-04-21T06:40:01.835Z,63.66
2019-04-21T06:42:50.387Z,62.05
2019-04-21T06:46:03.694Z,61.32
2019-04-21T06:49:02.829Z,59.29
2019-04-21T06:52:20.569Z,58.28
2019-04-21T06:55:16.968Z,56.88
2019-04-21T06:58:18.163Z,56.95
2019-04-21T07:01:30.885Z,56.84
2019-04-21T07:04:58.650Z,55.74
2019-04-21T07:07:43.627Z,56.05
2019-04-21T07:10:43.504Z,52.93
2019-04-21T07:14:01.688Z,52.02
2019-04-21T07:17:06.558Z,51.06
2019-04-21T07:20:07.307Z,51.01
2019-04-21T07:23:20.416Z,48.94
2019-04-21T07:26:19.196Z,48.81
2019-04-21T07:29:32.575Z,48.76
2019-04-21T07:32:49.798Z,48.37
2019-04-21T07:35:50.909Z,48.42
2019-04-21T07:38:39.959Z,48.88
2019-04-21T07:41:45.349Z,49.15
2019-04-21T07:44:49.449Z,45.71
2019-04-21T07:48:00.950Z,45.89
2019-04-21T07:51:37.772Z,46.01
2019-04-21T07:54:57.415Z,45.49
2019-04-21T07:58:03.011Z,44.13
2019-04-21T08:01:46.540Z,45.29
2019-04-21T08:07:55.894Z,43.41
2019-04-21T08:10:56.743Z,44.22
2019-04-21T08:14:02.092Z,43.91
2019-04-21T08:17:11.017Z,44.15
2019-04-21T08:20:15.616Z,42.53
2019-04-21T08:23:27.430Z,43.09
2019-04-21T08:26:34.522Z,42.84
2019-04-21T08:32:55.521Z,41.35
2019-04-21T08:36:03.058Z,41.54
2019-04-21T08:38:54.521Z,41.84
2019-04-21T08:41:59.016Z,41.29
2019-04-21T08:45:03.874Z,40.41
2019-04-21T08:48:04.151Z,41.22
2019-04-21T08:54:21.987Z,40.19
2019-04-21T08:57:50.861Z,40.39
2019-04-21T09:01:01.135Z,39.65
2019-04-21T09:04:07.557Z,38.87
2019-04-21T09:07:16.332Z,40.00
2019-04-21T09:10:17.275Z,38.68
2019-04-21T09:13:24.883Z,37.46
2019-04-21T09:16:27.759Z,38.65
2019-04-21T09:19:45.211Z,39.81
2019-04-21T09:22:47.807Z,37.81
2019-04-21T09:25:57.571Z,37.59
2019-04-21T09:28:52.231Z,39.08
2019-04-21T09:31:50.306Z,37.11
2019-04-21T09:34:56.070Z,37.18
2019-04-21T09:38:16.030Z,38.53
2019-04-21T09:41:14.263Z,38.18
2019-04-21T09:44:25.453Z,38.39
2019-04-21T09:47:33.607Z,37.13
2019-04-21T09:50:31.789Z,37.49
2019-04-21T09:53:40.169Z,39.23
2019-04-21T09:56:52.402Z,38.09
2019-04-21T09:59:57.575Z,36.86
2019-04-21T10:03:02.168Z,37.54
2019-04-21T10:06:04.333Z,36.32
2019-04-21T10:09:14.442Z,36.97
2019-04-21T10:12:16.684Z,36.93
2019-04-21T10:15:25.011Z,38.51
2019-04-21T10:18:31.908Z,38.33
2019-04-21T10:21:38.076Z,37.41
2019-04-21T10:24:44.598Z,36.79
2019-04-21T10:27:50.127Z,36.47
2019-04-21T10:30:58.556Z,35.27
2019-04-21T10:34:05.273Z,36.64
2019-04-21T10:37:13.303Z,36.45
2019-04-21T10:40:21.282Z,36.05
2019-04-21T10:43:29.502Z,34.15
2019-04-21T10:46:36.879Z,35.48
2019-04-21T10:49:44.627Z,35.78
2019-04-21T10:53:00.889Z,35.65
2019-04-21T10:56:15.696Z,35.00
2019-04-21T10:59:16.253Z,35.87
2019-04-21T11:02:28.832Z,36.14
2019-04-21T11:05:33.025Z,34.60
2019-04-21T11:08:43.998Z,35.10
2019-04-21T11:11:48.270Z,37.48
2019-04-21T11:14:53.558Z,36.91
2019-04-21T11:18:00.007Z,37.41
2019-04-21T11:21:04.983Z,36.40
2019-04-21T11:24:10.396Z,36.17
2019-04-21T11:27:15.007Z,35.83
2019-04-21T11:30:19.998Z,34.17
2019-04-21T11:33:24.974Z,36.57
2019-04-21T11:36:29.243Z,34.77
2019-04-21T11:39:42.219Z,35.24
2019-04-21T11:42:40.067Z,35.51
2019-04-21T11:45:44.425Z,35.21
2019-04-21T11:48:48.726Z,34.95
2019-04-21T11:51:53.256Z,33.63
2019-04-21T11:54:58.516Z,34.38
2019-04-21T11:58:03.556Z,32.94
2019-04-21T12:01:07.835Z,32.70
2019-04-21T12:04:12.018Z,33.43
2019-04-21T12:07:17.516Z,33.89
2019-04-21T12:10:21.768Z,35.20
2019-04-21T12:13:26.088Z,34.05
2019-04-21T12:16:30.842Z,34.89
2019-04-21T12:19:36.737Z,34.81
2019-04-21T12:22:41.249Z,35.63
2019-04-21T12:25:47.770Z,35.84
2019-04-21T12:28:53.552Z,34.52
2019-04-21T12:32:26.487Z,35.99
2019-04-21T12:35:30.957Z,34.45
2019-04-21T12:38:41.458Z,36.09
2019-04-21T12:41:40.835Z,36.32
2019-04-21T12:44:45.446Z,35.08
2019-04-21T12:47:52.416Z,37.10
2019-04-21T12:50:59.774Z,34.34
2019-04-21T12:54:03.988Z,36.72
2019-04-21T12:57:09.655Z,35.89
2019-04-21T13:00:16.675Z,35.76
2019-04-21T13:03:23.101Z,35.73
2019-04-21T13:06:27.775Z,37.20
2019-04-21T13:09:33.822Z,36.06
2019-04-21T13:12:38.865Z,36.94
2019-04-21T13:15:43.632Z,36.32
2019-04-21T13:18:49.366Z,37.12
2019-04-21T13:21:54.039Z,37.60
2019-04-21T13:25:00.428Z,37.37
2019-04-21T13:28:05.016Z,36.73
2019-04-21T13:31:09.599Z,36.45
2019-04-21T13:34:14.035Z,36.07
2019-04-21T13:37:19.542Z,34.93
2019-04-21T13:40:56.925Z,36.91
2019-04-21T13:43:50.759Z,37.35
2019-04-21T13:46:59.023Z,36.92
2019-04-21T13:50:07.145Z,37.19
2019-04-21T13:53:16.723Z,37.42
2019-04-21T13:56:28.903Z,37.27
2019-04-21T13:59:38.436Z,35.28
2019-04-21T14:02:44.800Z,36.05
2019-04-21T14:05:54.032Z,36.17
2019-04-21T14:09:03.351Z,34.98
2019-04-21T14:12:13.755Z,35.56
2019-04-21T14:15:22.156Z,36.65
2019-04-21T14:18:26.858Z,37.45
2019-04-21T14:21:37.122Z,36.67
2019-04-21T14:24:43.863Z,36.38
2019-04-21T14:27:52.037Z,35.23
2019-04-21T14:30:59.659Z,36.56
2019-04-21T14:34:04.204Z,37.15
2019-04-21T14:37:08.811Z,36.07
2019-04-21T14:40:20.700Z,35.79
2019-04-21T14:43:21.691Z,36.58
2019-04-21T14:46:31.288Z,35.55
2019-04-21T14:49:57.515Z,35.35
2019-04-21T14:53:20.337Z,35.35
2019-04-21T14:56:25.052Z,34.77
2019-04-21T14:59:29.076Z,35.44
2019-04-21T15:02:33.910Z,36.93
2019-04-21T15:05:37.804Z,36.93
2019-04-21T15:08:42.945Z,37.02
2019-04-21T15:11:47.697Z,37.38
2019-04-21T15:14:51.919Z,36.41
2019-04-21T15:17:55.937Z,36.41
2019-04-21T15:21:01.375Z,36.09
2019-04-21T15:24:06.540Z,36.32
2019-04-21T15:27:10.611Z,35.19
2019-04-21T15:30:14.804Z,35.67
2019-04-21T15:33:20.220Z,35.08
2019-04-21T15:36:25.033Z,34.63
2019-04-21T15:39:29.838Z,33.80
2019-04-21T15:42:34.633Z,34.15
2019-04-21T15:45:39.046Z,34.15
2019-04-21T15:48:44.661Z,31.81
2019-04-21T15:51:49.575Z,32.35
2019-04-21T15:54:57.011Z,31.36
2019-04-21T15:58:10.252Z,31.00
2019-04-21T16:01:25.737Z,31.19
2019-04-21T16:04:30.677Z,30.25
2019-04-21T16:07:36.082Z,29.64
2019-04-21T16:10:47.109Z,30.03
2019-04-21T16:13:45.965Z,30.69
2019-04-21T16:16:49.919Z,30.23
2019-04-21T16:19:54.274Z,31.01
2019-04-21T16:22:58.245Z,31.92
2019-04-21T16:26:02.576Z,33.31
2019-04-21T16:29:07.085Z,34.69
2019-04-21T16:32:14.132Z,36.23
2019-04-21T16:35:18.659Z,36.96
2019-04-21T16:38:23.671Z,37.31
2019-04-21T16:41:28.657Z,38.02
2019-04-21T16:44:32.714Z,38.69
2019-04-21T16:47:37.920Z,38.66
2019-04-21T16:50:42.051Z,38.54
2019-04-21T16:53:53.467Z,39.52
2019-04-21T16:57:10.053Z,40.14
2019-04-21T17:00:30.205Z,40.23
2019-04-21T17:03:26.488Z,40.49
2019-04-21T17:06:31.177Z,40.84
2019-04-21T17:09:35.131Z,40.33
2019-04-21T17:12:41.830Z,40.31
2019-04-21T17:15:59.736Z,40.48
2019-04-21T17:19:01.883Z,40.38
2019-04-21T17:22:01.740Z,40.13
2019-04-21T17:25:08.582Z,40.22
2019-04-21T17:28:12.731Z,40.27
2019-04-21T17:31:18.095Z,40.63
2019-04-21T17:34:26.112Z,40.03
2019-04-21T17:37:29.187Z,40.19
2019-04-21T17:40:34.274Z,41.13
2019-04-21T17:43:39.553Z,41.45
2019-04-21T17:46:53.637Z,42.35
2019-04-21T17:50:06.010Z,43.05
2019-04-21T17:53:14.495Z,43.25
2019-04-21T17:56:46.254Z,43.79
2019-04-21T17:59:58.934Z,44.36
2019-04-21T18:02:47.917Z,44.34
2019-04-21T18:05:50.353Z,45.30
2019-04-21T18:09:04.383Z,45.40
2019-04-21T18:12:05.034Z,45.65
2019-04-21T18:15:02.029Z,45.71
2019-04-21T18:17:58.739Z,45.67
2019-04-21T18:21:09.185Z,46.38
2019-04-21T18:24:19.587Z,46.13
2019-04-21T18:27:19.701Z,45.99
2019-04-21T18:31:00.529Z,45.94
2019-04-21T18:34:25.660Z,46.08
2019-04-21T18:37:50.826Z,46.17
2019-04-21T18:40:54.389Z,46.55
2019-04-21T18:44:28.745Z,46.63
2019-04-21T18:47:31.918Z,47.33
2019-04-21T18:50:55.171Z,47.90
2019-04-21T18:54:17.714Z,48.65
2019-04-21T18:57:07.888Z,48.77
2019-04-21T19:00:15.293Z,49.38
2019-04-21T19:03:15.585Z,49.88
2019-04-21T19:06:32.340Z,50.06
2019-04-21T19:10:07.290Z,50.62
2019-04-21T19:16:17.219Z,51.47
2019-04-21T19:19:23.727Z,51.49
2019-04-21T19:22:09.088Z,51.50
2019-04-21T19:25:26.913Z,51.86
2019-04-21T19:28:19.558Z,52.14
2019-04-21T19:31:26.167Z,52.33
2019-04-21T19:34:21.112Z,52.58
2019-04-21T19:37:22.505Z,52.41
2019-04-21T19:40:40.767Z,52.57
2019-04-21T19:43:45.925Z,52.62
2019-04-21T19:46:55.449Z,52.89
2019-04-21T19:50:01.855Z,53.55
2019-04-21T19:52:57.754Z,54.33
2019-04-21T19:55:54.137Z,54.01
2019-04-21T19:58:59.046Z,54.19
2019-04-21T20:02:04.491Z,54.42
2019-04-21T20:05:13.584Z,54.30
2019-04-21T20:08:30.946Z,54.13
2019-04-21T20:11:38.232Z,54.49
2019-04-21T20:14:57.640Z,54.57
2019-04-21T20:17:47.782Z,54.69
2019-04-21T20:20:40.823Z,55.07
2019-04-21T20:23:46.255Z,55.15
2019-04-21T20:27:01.336Z,55.06
2019-04-21T20:30:17.458Z,54.91
2019-04-21T20:33:41.302Z,55.26
2019-04-21T20:36:31.381Z,55.10
2019-04-21T20:39:17.603Z,55.30
2019-04-21T20:42:28.049Z,55.47
2019-04-21T20:46:01.083Z,55.53
2019-04-21T20:48:43.886Z,55.88
2019-04-21T20:51:54.386Z,55.81
2019-04-21T20:54:56.393Z,56.25
2019-04-21T20:57:58.012Z,56.91
2019-04-21T21:01:25.750Z,57.42
2019-04-21T21:04:12.077Z,57.50
2019-04-21T21:07:36.706Z,57.71
2019-04-21T21:10:31.540Z,57.38
2019-04-21T21:13:37.414Z,57.34
2019-04-21T21:19:45.725Z,58.25
2019-04-21T21:22:48.074Z,57.99
2019-04-21T21:25:54.501Z,57.91
2019-04-21T21:28:54.798Z,58.28
2019-04-21T21:32:16.589Z,58.29
2019-04-21T21:35:13.495Z,58.59
2019-04-21T21:38:24.018Z,58.87
2019-04-21T21:41:17.696Z,59.17
2019-04-21T21:44:17.850Z,59.68
2019-04-21T21:47:32.136Z,59.76
2019-04-21T21:50:31.560Z,60.38
2019-04-21T21:53:32.602Z,60.13
2019-04-21T21:56:34.647Z,60.24
2019-04-21T21:59:40.402Z,59.89
2019-04-21T22:02:51.179Z,60.48
2019-04-21T22:05:58.249Z,60.90
2019-04-21T22:08:56.577Z,61.24
2019-04-21T22:12:04.765Z,61.50
2019-04-21T22:15:13.903Z,61.67
2019-04-21T22:18:31.812Z,61.80
2019-04-21T22:21:36.359Z,61.52
2019-04-21T22:24:39.950Z,60.77
2019-04-21T22:27:30.716Z,59.92
2019-04-21T22:30:39.199Z,58.91
2019-04-21T22:33:48.383Z,58.83
2019-04-21T22:36:56.303Z,58.39
2019-04-21T22:40:04.470Z,58.35
2019-04-21T22:43:09.923Z,58.56
2019-04-21T22:46:03.413Z,58.38
2019-04-21T22:49:09.308Z,58.42
2019-04-21T22:52:25.821Z,57.94
2019-04-21T22:55:31.616Z,58.26
2019-04-21T22:58:37.376Z,58.10
2019-04-21T23:01:42.418Z,57.99
2019-04-21T23:04:50.575Z,58.66
2019-04-21T23:07:58.096Z,59.07
2019-04-21T23:11:01.428Z,58.80
2019-04-21T23:14:05.102Z,59.57
2019-04-21T23:17:29.851Z,59.96
2019-04-21T23:20:34.583Z,60.07
2019-04-21T23:23:39.801Z,60.39
2019-04-21T23:26:40.743Z,60.64
2019-04-21T23:32:47.852Z,61.27
2019-04-21T23:35:45.707Z,61.07
2019-04-21T23:38:49.817Z,61.73
2019-04-21T23:41:55.418Z,61.70
2019-04-21T23:45:01.348Z,61.77
2019-04-21T23:48:18.592Z,61.86
2019-04-21T23:51:23.283Z,61.49
2019-04-21T23:54:15.645Z,61.38
2019-04-21T23:57:29.846Z,61.01
